createdAt,value
2023-04-20T00:02:03.430Z,36.35
2023-04-20T00:04:34.621Z,39.63
2023-04-20T00:07:04.723Z,36.22
2023-04-20T00:09:35.766Z,41.05
2023-04-20T00:12:07.226Z,38.42
2023-04-20T00:14:39.369Z,38.53
2023-04-20T00:17:10.089Z,37.47
2023-04-20T00:19:40.562Z,35.72
2023-04-20T00:22:10.862Z,41.45
2023-04-20T00:24:41.473Z,41.17
2023-04-20T00:27:12.509Z,40.55
2023-04-20T00:29:44.536Z,37.03
2023-04-20T00:32:14.731Z,37.85
2023-04-20T00:34:45.366Z,34.40
2023-04-20T00:37:16.665Z,33.50
2023-04-20T00:39:47.065Z,32.50
2023-04-20T00:42:17.406Z,29.75
2023-04-20T00:44:50.633Z,30.80
2023-04-20T00:47:21.082Z,26.90
2023-04-20T00:49:51.828Z,30.23
2023-04-20T00:52:23.320Z,32.78
2023-04-20T00:54:54.052Z,29.33
2023-04-20T00:57:24.670Z,30.63
2023-04-20T00:59:56.609Z,29.63
2023-04-20T01:02:27.750Z,34.45
2023-04-20T01:05:01.536Z,30.17
2023-04-20T01:07:33.016Z,31.08
2023-04-20T01:10:04.546Z,32.05
2023-04-20T01:12:34.979Z,32.78
2023-04-20T01:15:13.147Z,32.63
2023-04-20T01:17:45.871Z,34.28
2023-04-20T01:20:16.971Z,34.58
2023-04-20T01:22:50.405Z,31.40
2023-04-20T01:25:21.461Z,33.17
2023-04-20T01:27:51.619Z,32.20
2023-04-20T01:30:22.384Z,35.40
2023-04-20T01:32:52.527Z,33.00
2023-04-20T01:35:23.000Z,35.55
2023-04-20T01:37:54.527Z,36.15
2023-04-20T01:40:26.097Z,35.75
2023-04-20T01:42:56.244Z,36.25
2023-04-20T01:45:26.850Z,36.35
2023-04-20T01:47:57.173Z,41.55
2023-04-20T01:50:27.579Z,36.05
2023-04-20T01:52:59.211Z,35.88
2023-04-20T01:55:29.644Z,36.33
2023-04-20T01:57:59.974Z,37.83
2023-04-20T02:00:30.613Z,34.75
2023-04-20T02:03:02.680Z,36.88
2023-04-20T02:05:33.465Z,39.13
2023-04-20T02:08:05.100Z,38.00
2023-04-20T02:10:35.971Z,34.38
2023-04-20T02:13:06.146Z,32.88
2023-04-20T02:15:37.545Z,37.30
2023-04-20T02:18:07.916Z,36.70
2023-04-20T02:20:38.444Z,32.38
2023-04-20T02:23:10.109Z,35.33
2023-04-20T02:25:40.808Z,32.55
2023-04-20T02:28:11.258Z,32.53
2023-04-20T02:30:42.480Z,32.33
2023-04-20T02:33:15.163Z,33.05
2023-04-20T02:35:45.756Z,34.97
2023-04-20T02:38:17.327Z,34.63
2023-04-20T02:40:47.778Z,37.47
2023-04-20T02:43:19.009Z,37.15
2023-04-20T02:45:49.775Z,35.90
2023-04-20T02:48:23.677Z,38.83
2023-04-20T02:50:57.404Z,40.15
2023-04-20T02:53:31.402Z,42.10
2023-04-20T02:56:17.492Z,44.83
2023-04-20T02:58:53.291Z,45.05
2023-04-20T03:01:47.230Z,43.20
2023-04-20T03:04:22.344Z,45.15
2023-04-20T03:07:05.900Z,44.83
2023-04-20T03:09:40.071Z,45.80
2023-04-20T03:12:20.093Z,47.35
2023-04-20T03:15:11.412Z,48.72
2023-04-20T03:18:04.121Z,49.10
2023-04-20T03:20:34.558Z,49.08
2023-04-20T03:23:05.134Z,52.20
2023-04-20T03:25:37.612Z,51.33
2023-04-20T03:28:12.690Z,51.80
2023-04-20T03:30:44.291Z,54.22
2023-04-20T03:33:19.205Z,48.13
2023-04-20T03:35:49.730Z,52.08
2023-04-20T03:38:21.351Z,47.03
2023-04-20T03:40:53.136Z,49.28
2023-04-20T03:43:23.810Z,48.67
2023-04-20T03:45:54.484Z,46.83
2023-04-20T03:48:25.122Z,45.50
2023-04-20T03:50:56.082Z,48.33
2023-04-20T03:53:29.137Z,47.20
2023-04-20T03:56:01.341Z,45.25
2023-04-20T03:58:32.293Z,45.70
2023-04-20T04:01:09.853Z,50.45
2023-04-20T04:03:44.657Z,43.30
2023-04-20T04:06:15.730Z,48.97
2023-04-20T04:08:46.407Z,50.67
2023-04-20T04:11:18.016Z,48.60
2023-04-20T04:13:49.341Z,48.47
2023-04-20T04:16:19.946Z,43.95
2023-04-20T04:18:51.818Z,51.22
2023-04-20T04:21:22.681Z,50.97
2023-04-20T04:24:00.897Z,54.22
2023-04-20T04:26:43.321Z,51.38
2023-04-20T04:29:16.172Z,58.80
2023-04-20T04:31:46.977Z,54.08
2023-04-20T04:34:20.903Z,56.50
2023-04-20T04:36:54.564Z,61.50
2023-04-20T04:39:33.221Z,58.88
2023-04-20T04:42:13.695Z,52.17
2023-04-20T04:44:46.331Z,55.72
2023-04-20T04:47:23.714Z,54.95
2023-04-20T04:49:55.433Z,59.60
2023-04-20T04:52:25.854Z,60.00
2023-04-20T04:54:56.485Z,57.80
2023-04-20T04:57:28.183Z,63.13
2023-04-20T04:59:58.680Z,59.72
2023-04-20T05:02:29.052Z,65.03
2023-04-20T05:05:00.357Z,65.55
2023-04-20T05:07:30.690Z,63.08
2023-04-20T05:10:01.195Z,67.30
2023-04-20T05:12:32.862Z,67.50
2023-04-20T05:15:03.683Z,68.60
2023-04-20T05:17:34.236Z,67.13
2023-04-20T05:20:06.395Z,70.10
2023-04-20T05:22:36.542Z,71.75
2023-04-20T05:25:08.808Z,70.47
2023-04-20T05:27:40.495Z,69.22
2023-04-20T05:30:20.864Z,63.85
2023-04-20T05:32:52.902Z,67.97
2023-04-20T05:35:23.606Z,63.08
2023-04-20T05:37:53.688Z,63.35
2023-04-20T05:40:24.466Z,68.30
2023-04-20T05:42:56.956Z,58.72
2023-04-20T05:45:27.736Z,62.17
2023-04-20T05:47:58.804Z,65.22
2023-04-20T05:50:29.366Z,63.88
2023-04-20T05:52:59.672Z,65.60
2023-04-20T05:55:30.457Z,66.22
2023-04-20T05:58:02.117Z,70.18
2023-04-20T06:00:32.820Z,66.68
2023-04-20T06:03:03.417Z,61.88
2023-04-20T06:05:34.448Z,64.95
2023-04-20T06:08:05.023Z,68.85
2023-04-20T06:10:35.765Z,61.58
2023-04-20T06:13:07.403Z,68.50
2023-04-20T06:15:38.413Z,60.95
2023-04-20T06:18:09.093Z,67.75
2023-04-20T06:20:40.574Z,75.70
2023-04-20T06:23:10.966Z,72.30
2023-04-20T06:25:41.591Z,73.28
2023-04-20T06:28:13.393Z,67.82
2023-04-20T06:30:44.171Z,70.50
2023-04-20T06:33:17.400Z,77.88
2023-04-20T06:35:48.092Z,76.05
2023-04-20T06:38:18.382Z,73.10
2023-04-20T06:40:48.912Z,66.40
2023-04-20T06:43:20.863Z,62.80
2023-04-20T06:45:51.665Z,69.80
2023-04-20T06:48:30.836Z,72.32
2023-04-20T06:51:03.003Z,65.95
2023-04-20T06:53:33.270Z,64.47
2023-04-20T06:56:04.237Z,68.95
2023-04-20T06:58:35.769Z,68.47
2023-04-20T07:01:06.991Z,70.78
2023-04-20T07:03:38.361Z,76.20
2023-04-20T07:06:11.798Z,70.53
2023-04-20T07:08:42.650Z,72.93
2023-04-20T07:11:14.391Z,67.82
2023-04-20T07:13:46.369Z,65.28
2023-04-20T07:16:17.791Z,73.65
2023-04-20T07:18:49.644Z,63.90
2023-04-20T07:21:20.170Z,61.25
2023-04-20T07:23:51.448Z,68.38
2023-04-20T07:26:22.408Z,66.70
2023-04-20T07:28:55.576Z,68.18
2023-04-20T07:31:26.588Z,63.28
2023-04-20T07:33:57.063Z,63.42
2023-04-20T07:36:28.049Z,59.85
2023-04-20T07:38:59.391Z,74.72
2023-04-20T07:41:30.115Z,61.22
2023-04-20T07:44:02.113Z,60.28
2023-04-20T07:46:32.890Z,60.80
2023-04-20T07:49:04.233Z,54.05
2023-04-20T07:51:35.498Z,55.42
2023-04-20T07:54:08.054Z,57.15
2023-04-20T07:59:10.742Z,57.72
2023-04-20T08:01:41.593Z,54.80
2023-04-20T08:04:12.137Z,55.85
2023-04-20T08:06:42.595Z,55.97
2023-04-20T08:09:13.437Z,52.83
2023-04-20T08:11:46.981Z,54.75
2023-04-20T08:14:19.097Z,53.10
2023-04-20T08:19:20.866Z,53.28
2023-04-20T08:21:54.361Z,48.65
2023-04-20T08:24:25.035Z,52.60
2023-04-20T08:26:55.945Z,53.47
2023-04-20T08:29:27.790Z,55.85
2023-04-20T08:31:58.454Z,56.38
2023-04-20T08:34:28.744Z,58.20
2023-04-20T08:36:59.352Z,62.70
2023-04-20T08:39:30.557Z,59.25
2023-04-20T08:42:02.273Z,60.53
2023-04-20T08:44:34.141Z,60.50
2023-04-20T08:47:05.656Z,57.17
2023-04-20T08:49:38.520Z,60.78
2023-04-20T08:52:11.287Z,62.20
2023-04-20T08:54:55.229Z,58.85
2023-04-20T08:57:27.885Z,51.13
2023-04-20T08:59:59.805Z,48.55
2023-04-20T09:02:30.391Z,49.85
2023-04-20T09:05:05.864Z,51.58
2023-04-20T09:07:37.045Z,51.35
2023-04-20T09:10:08.179Z,50.08
2023-04-20T09:12:43.928Z,51.45
2023-04-20T09:15:27.262Z,44.90
2023-04-20T09:17:58.664Z,47.00
2023-04-20T09:20:31.665Z,47.92
2023-04-20T09:23:13.655Z,43.03
2023-04-20T09:25:46.408Z,46.70
2023-04-20T09:28:18.021Z,42.80
2023-04-20T09:30:51.839Z,44.20
2023-04-20T09:33:28.937Z,42.58
2023-04-20T09:36:06.672Z,42.95
2023-04-20T09:38:37.290Z,43.17
2023-04-20T09:41:08.876Z,41.05
2023-04-20T09:43:40.031Z,41.17
2023-04-20T09:46:11.796Z,40.20
2023-04-20T09:48:42.894Z,37.17
2023-04-20T09:51:13.803Z,40.67
2023-04-20T09:53:46.208Z,39.28
2023-04-20T09:56:18.539Z,39.60
2023-04-20T09:58:49.531Z,40.20
2023-04-20T10:01:22.126Z,39.88
2023-04-20T10:03:55.330Z,41.42
2023-04-20T10:06:27.841Z,38.17
2023-04-20T10:08:58.934Z,38.30
2023-04-20T10:11:40.510Z,35.08
2023-04-20T10:14:19.645Z,37.88
2023-04-20T10:17:02.738Z,34.50
2023-04-20T10:19:41.312Z,36.63
2023-04-20T10:22:13.642Z,37.85
2023-04-20T10:24:44.128Z,37.20
2023-04-20T10:27:21.948Z,40.55
2023-04-20T10:29:52.808Z,35.90
2023-04-20T10:32:29.614Z,34.80
2023-04-20T10:35:06.471Z,34.92
2023-04-20T10:37:37.367Z,35.25
2023-04-20T10:40:10.748Z,41.47
2023-04-20T10:42:44.875Z,37.50
2023-04-20T10:45:15.591Z,32.75
2023-04-20T10:47:47.445Z,37.50
2023-04-20T10:50:19.415Z,34.97
2023-04-20T10:52:50.000Z,36.47
2023-04-20T10:55:22.663Z,43.08
2023-04-20T10:57:53.475Z,35.83
2023-04-20T11:00:27.406Z,37.78
2023-04-20T11:02:59.473Z,36.55
2023-04-20T11:05:30.519Z,35.38
2023-04-20T11:08:02.392Z,33.40
2023-04-20T11:10:40.753Z,33.40
2023-04-20T11:13:22.475Z,33.78
2023-04-20T11:15:53.532Z,35.15
2023-04-20T11:18:25.621Z,38.90
2023-04-20T11:20:57.654Z,37.83
2023-04-20T11:23:39.047Z,34.65
2023-04-20T11:26:09.763Z,39.33
2023-04-20T11:28:40.065Z,38.22
2023-04-20T11:31:18.802Z,35.22
2023-04-20T11:33:50.792Z,35.83
2023-04-20T11:36:22.765Z,36.38
2023-04-20T11:38:53.500Z,36.30
2023-04-20T11:41:24.416Z,37.97
2023-04-20T11:43:54.876Z,36.22
2023-04-20T11:46:26.098Z,35.63
2023-04-20T11:49:00.033Z,37.88
2023-04-20T11:51:31.523Z,33.60
2023-04-20T11:54:02.011Z,36.75
2023-04-20T11:56:33.218Z,38.70
2023-04-20T11:59:04.053Z,33.85
2023-04-20T12:01:35.123Z,38.05
2023-04-20T12:04:07.516Z,33.95
2023-04-20T12:06:38.289Z,31.88
2023-04-20T12:09:08.456Z,36.15
2023-04-20T12:11:39.208Z,36.92
2023-04-20T12:14:09.774Z,34.03
2023-04-20T12:16:40.568Z,36.95
2023-04-20T12:19:12.256Z,30.05
2023-04-20T12:21:43.278Z,31.77
2023-04-20T12:24:13.592Z,28.88
2023-04-20T12:26:44.372Z,31.83
2023-04-20T12:29:15.054Z,32.70
2023-04-20T12:31:45.855Z,34.03
2023-04-20T12:34:18.498Z,34.67
2023-04-20T12:36:49.630Z,26.70
2023-04-20T12:39:20.127Z,28.45
2023-04-20T12:41:50.923Z,21.70
2023-04-20T12:44:21.497Z,27.02
2023-04-20T12:46:52.428Z,26.30
2023-04-20T12:49:24.117Z,25.55
2023-04-20T12:51:55.018Z,31.85
2023-04-20T12:54:25.404Z,28.58
2023-04-20T12:56:57.228Z,26.88
2023-04-20T12:59:27.607Z,30.00
2023-04-20T13:01:58.450Z,26.95
2023-04-20T13:04:30.524Z,33.95
2023-04-20T13:07:01.096Z,25.87
2023-04-20T13:09:31.468Z,32.90
2023-04-20T13:12:03.168Z,28.02
2023-04-20T13:14:33.764Z,27.67
2023-04-20T13:17:06.451Z,26.83
2023-04-20T13:19:38.167Z,29.97
2023-04-20T13:22:09.132Z,28.67
2023-04-20T13:24:39.321Z,27.98
2023-04-20T13:27:11.084Z,27.42
2023-04-20T13:29:41.603Z,27.70
2023-04-20T13:32:12.590Z,25.70
2023-04-20T13:34:44.476Z,22.27
2023-04-20T13:37:15.166Z,21.38
2023-04-20T13:39:45.734Z,16.75
2023-04-20T13:42:16.358Z,22.45
2023-04-20T13:44:46.925Z,22.05
2023-04-20T13:47:17.641Z,17.42
2023-04-20T13:49:49.267Z,14.13
2023-04-20T13:52:20.528Z,16.35
2023-04-20T13:54:50.866Z,14.18
2023-04-20T13:57:21.658Z,11.60
2023-04-20T13:59:51.992Z,13.57
2023-04-20T14:02:22.826Z,14.93
2023-04-20T14:04:54.891Z,15.73
2023-04-20T14:07:25.892Z,12.38
2023-04-20T14:09:59.930Z,16.25
2023-04-20T14:12:30.899Z,15.27
2023-04-20T14:15:02.228Z,12.52
2023-04-20T14:17:33.127Z,17.10
2023-04-20T14:20:05.913Z,12.10
2023-04-20T14:22:37.519Z,17.58
2023-04-20T14:25:09.036Z,22.40
2023-04-20T14:27:40.090Z,16.63
2023-04-20T14:30:12.300Z,17.15
2023-04-20T14:32:43.145Z,15.10
2023-04-20T14:35:14.787Z,15.85
2023-04-20T14:37:45.364Z,13.63
2023-04-20T14:40:16.367Z,11.55
2023-04-20T14:42:48.031Z,13.13
2023-04-20T14:45:18.538Z,13.88
2023-04-20T14:47:53.229Z,14.30
2023-04-20T14:50:28.590Z,12.07
2023-04-20T14:52:59.164Z,15.05
2023-04-20T14:55:29.703Z,14.40
2023-04-20T14:58:00.468Z,13.68
2023-04-20T15:00:31.014Z,15.95
2023-04-20T15:03:01.989Z,12.43
2023-04-20T15:05:35.222Z,10.52
2023-04-20T15:08:06.659Z,13.20
2023-04-20T15:10:38.134Z,21.08
2023-04-20T15:13:09.095Z,10.60
2023-04-20T15:15:48.209Z,15.88
2023-04-20T15:18:20.138Z,15.88
2023-04-20T15:20:52.644Z,18.80
2023-04-20T15:23:23.512Z,14.30
2023-04-20T15:25:54.693Z,20.00
2023-04-20T15:28:25.497Z,17.90
2023-04-20T15:30:55.730Z,14.65
2023-04-20T15:33:26.254Z,14.38
2023-04-20T15:35:58.096Z,25.45
2023-04-20T15:38:28.937Z,15.02
2023-04-20T15:40:59.969Z,12.57
2023-04-20T15:43:30.468Z,16.38
2023-04-20T15:46:00.934Z,12.85
2023-04-20T15:48:31.801Z,14.55
2023-04-20T15:51:04.124Z,19.05
2023-04-20T15:53:34.967Z,11.88
2023-04-20T15:56:05.966Z,13.63
2023-04-20T15:58:37.056Z,15.90
2023-04-20T16:01:09.276Z,16.23
2023-04-20T16:03:43.214Z,15.60
2023-04-20T16:06:18.130Z,16.88
2023-04-20T16:08:53.343Z,23.20
2023-04-20T16:11:24.033Z,14.40
2023-04-20T16:13:58.260Z,15.60
2023-04-20T16:16:28.745Z,23.00
2023-04-20T16:19:00.389Z,15.00
2023-04-20T16:21:34.606Z,17.85
2023-04-20T16:24:05.927Z,19.85
2023-04-20T16:26:37.722Z,12.70
2023-04-20T16:29:09.585Z,14.75
2023-04-20T16:31:41.255Z,19.77
2023-04-20T16:34:15.053Z,17.20
2023-04-20T16:36:46.894Z,20.83
2023-04-20T16:39:18.337Z,16.43
2023-04-20T16:41:50.908Z,19.05
2023-04-20T16:44:21.726Z,12.27
2023-04-20T16:46:52.822Z,18.05
2023-04-20T16:49:26.983Z,15.20
2023-04-20T16:52:00.176Z,14.05
2023-04-20T16:54:31.734Z,19.17
2023-04-20T16:57:02.336Z,14.75
2023-04-20T16:59:33.086Z,21.40
2023-04-20T17:02:04.477Z,19.88
2023-04-20T17:04:35.968Z,21.27
2023-04-20T17:07:08.031Z,15.65
2023-04-20T17:09:40.387Z,18.23
2023-04-20T17:12:11.378Z,19.88
2023-04-20T17:14:42.638Z,16.67
2023-04-20T17:17:13.397Z,14.82
2023-04-20T17:19:45.208Z,13.95
2023-04-20T17:22:17.218Z,15.98
2023-04-20T17:24:48.453Z,20.25
2023-04-20T17:27:20.371Z,17.08
2023-04-20T17:29:53.081Z,20.17
2023-04-20T17:32:23.574Z,20.08
2023-04-20T17:34:54.433Z,17.33
2023-04-20T17:37:26.488Z,16.00
2023-04-20T17:39:57.377Z,17.73
2023-04-20T17:42:27.849Z,20.83
2023-04-20T17:44:58.728Z,15.85
2023-04-20T17:47:31.321Z,18.60
2023-04-20T17:50:02.065Z,14.15
2023-04-20T17:52:33.737Z,13.45
2023-04-20T17:55:04.394Z,15.98
2023-04-20T17:57:34.929Z,13.38
2023-04-20T18:00:07.720Z,16.88
2023-04-20T18:02:42.600Z,15.23
2023-04-20T18:05:13.563Z,16.30
2023-04-20T18:07:45.584Z,25.05
2023-04-20T18:10:16.891Z,20.55
2023-04-20T18:12:47.462Z,20.88
2023-04-20T18:15:18.321Z,16.02
2023-04-20T18:17:50.312Z,15.48
2023-04-20T18:20:21.291Z,18.38
2023-04-20T18:22:52.976Z,16.08
2023-04-20T18:25:23.599Z,17.45
2023-04-20T18:27:53.888Z,17.08
2023-04-20T18:30:24.893Z,17.92
2023-04-20T18:32:55.489Z,15.30
2023-04-20T18:35:26.369Z,17.17
2023-04-20T18:37:58.021Z,18.88
2023-04-20T18:40:28.752Z,16.13
2023-04-20T18:42:58.979Z,16.13
2023-04-20T18:45:31.021Z,21.23
2023-04-20T18:48:01.636Z,16.27
2023-04-20T18:50:32.373Z,19.33
2023-04-20T18:53:05.171Z,17.92
2023-04-20T18:55:36.515Z,20.10
2023-04-20T18:58:07.034Z,21.13
2023-04-20T19:00:38.099Z,14.63
2023-04-20T19:03:08.489Z,18.25
2023-04-20T19:05:42.545Z,13.57
2023-04-20T19:08:14.851Z,16.08
2023-04-20T19:10:45.655Z,14.32
2023-04-20T19:13:17.850Z,25.35
2023-04-20T19:15:52.869Z,26.73
2023-04-20T19:18:24.440Z,26.20
2023-04-20T19:20:56.553Z,32.67
2023-04-20T19:23:29.227Z,33.28
2023-04-20T19:26:03.202Z,34.10
2023-04-20T19:28:36.531Z,27.85
2023-04-20T19:31:11.070Z,28.05
2023-04-20T19:33:43.018Z,24.65
2023-04-20T19:36:14.403Z,33.10
2023-04-20T19:38:49.546Z,24.80
2023-04-20T19:41:20.699Z,37.33
2023-04-20T19:43:51.370Z,26.50
2023-04-20T19:46:24.463Z,30.95
2023-04-20T19:48:56.075Z,32.03
2023-04-20T19:51:27.368Z,39.60
2023-04-20T19:54:01.726Z,39.20
2023-04-20T19:56:32.952Z,38.65
2023-04-20T19:59:03.899Z,35.15
2023-04-20T20:01:39.180Z,37.47
2023-04-20T20:04:10.971Z,40.83
2023-04-20T20:06:44.060Z,42.47
2023-04-20T20:09:16.091Z,40.43
2023-04-20T20:11:50.478Z,33.72
2023-04-20T20:14:21.379Z,33.47
2023-04-20T20:16:52.766Z,32.70
2023-04-20T20:19:23.934Z,28.10
2023-04-20T20:21:54.779Z,34.25
2023-04-20T20:24:26.903Z,35.28
2023-04-20T20:26:57.716Z,37.47
2023-04-20T20:29:28.122Z,37.17
2023-04-20T20:31:58.968Z,36.45
2023-04-20T20:34:29.330Z,32.40
2023-04-20T20:36:59.990Z,35.42
2023-04-20T20:39:32.483Z,36.17
2023-04-20T20:42:03.984Z,31.35
2023-04-20T20:44:35.024Z,35.92
2023-04-20T20:47:06.967Z,31.58
2023-04-20T20:49:37.519Z,36.72
2023-04-20T20:52:08.703Z,37.35
2023-04-20T20:54:41.055Z,35.95
2023-04-20T20:57:14.153Z,35.60
2023-04-20T20:59:44.928Z,35.37
2023-04-20T21:02:18.371Z,32.50
2023-04-20T21:04:50.019Z,33.27
2023-04-20T21:07:25.070Z,36.47
2023-04-20T21:09:59.115Z,36.55
2023-04-20T21:12:30.279Z,30.52
2023-04-20T21:15:02.008Z,34.83
2023-04-20T21:17:33.749Z,33.38
2023-04-20T21:20:06.029Z,35.72
2023-04-20T21:22:36.996Z,40.78
2023-04-20T21:25:11.537Z,30.48
2023-04-20T21:27:45.042Z,36.17
2023-04-20T21:30:18.139Z,37.28
2023-04-20T21:32:50.041Z,43.73
2023-04-20T21:35:20.518Z,29.55
2023-04-20T21:37:51.455Z,29.73
2023-04-20T21:40:26.017Z,28.58
2023-04-20T21:42:57.122Z,32.60
2023-04-20T21:45:28.764Z,29.95
2023-04-20T21:48:07.181Z,30.20
2023-04-20T21:50:39.693Z,31.30
2023-04-20T21:53:11.130Z,30.23
2023-04-20T21:55:45.666Z,27.77
2023-04-20T21:58:17.045Z,29.67
2023-04-20T22:00:48.343Z,33.58
2023-04-20T22:03:19.693Z,30.65
2023-04-20T22:05:54.265Z,23.45
2023-04-20T22:08:26.124Z,31.33
2023-04-20T22:10:57.972Z,30.25
2023-04-20T22:13:28.807Z,32.92
2023-04-20T22:15:59.328Z,28.35
2023-04-20T22:18:30.233Z,32.92
2023-04-20T22:21:00.650Z,33.45
2023-04-20T22:23:32.522Z,30.13
2023-04-20T22:26:05.131Z,30.63
2023-04-20T22:28:37.139Z,33.25
2023-04-20T22:31:08.780Z,32.03
2023-04-20T22:33:42.297Z,31.08
2023-04-20T22:36:15.062Z,31.45
2023-04-20T22:38:45.726Z,25.88
2023-04-20T22:41:18.095Z,27.38
2023-04-20T22:43:48.904Z,27.85
2023-04-20T22:46:19.586Z,26.65
2023-04-20T22:48:52.726Z,27.98
2023-04-20T22:51:23.419Z,31.30
2023-04-20T22:53:54.126Z,36.72
2023-04-20T22:56:25.957Z,35.20
2023-04-20T22:58:56.669Z,30.58
2023-04-20T23:01:27.487Z,32.92
2023-04-20T23:03:58.575Z,27.52
2023-04-20T23:06:29.749Z,34.35
2023-04-20T23:09:00.663Z,27.40
2023-04-20T23:11:38.959Z,33.75
2023-04-20T23:14:11.014Z,31.95
2023-04-20T23:16:41.977Z,30.90
2023-04-20T23:19:12.613Z,30.88
2023-04-20T23:21:43.323Z,28.90
2023-04-20T23:24:14.048Z,33.67
2023-04-20T23:26:46.050Z,35.25
2023-04-20T23:29:16.878Z,32.92
2023-04-20T23:31:49.421Z,31.05
2023-04-20T23:34:22.238Z,30.55
2023-04-20T23:36:54.083Z,31.17
2023-04-20T23:39:24.932Z,32.92
2023-04-20T23:41:57.944Z,32.10
2023-04-20T23:44:28.683Z,40.80
2023-04-20T23:47:00.203Z,35.97
2023-04-20T23:49:31.589Z,40.10
2023-04-20T23:52:03.601Z,30.98
2023-04-20T23:54:35.379Z,32.05
2023-04-20T23:57:07.508Z,33.65
2023-04-20T23:59:38.255Z,30.38
